Kirkland, WA (98033)

12:08 PM PDT on July 24, 2016 (GMT -0700)
Kirkland Norkirk | | Change Station

Elev 171 ft 47.69 °N, 122.19 °W | Updated 21 seconds ago

Clear
Clear
74.3 °F
Feels Like 77 °F
N
1.3
Wind Variable Wind from SSW
Gusts 2.5 mph

Today
High -- | Low -- °F
--% Chance of Precip.
Yesterday
High -- | Low -- °F
Precip. -- in
Pressure 30.11 in
Visibility 10.0 miles
Clouds Clear
Heat Index 77 °F
Dew Point 56 °F
Humidity 52%
Rainfall 0.00 in
Snow Depth Not available.
5:36 AM 8:52 PM
Waning Gibbous, 74% visible
METAR KBFI 241853Z 30007KT 10SM CLR 22/12 A3011 RMK AO2 SLP196 T02170117
Pressure 30.11 in
Visibility 10.0 miles
Clouds Clear
Heat Index 77 °F
Dew Point 56 °F
Humidity 52%
Rainfall 0.00 in
Snow Depth Not available.
5:36 AM 8:52 PM
Waning Gibbous, 74% visible
METAR KBFI 241853Z 30007KT 10SM CLR 22/12 A3011 RMK AO2 SLP196 T02170117

10-Day Weather Forecast

Almanac

Astronomy

Jul. 24, 2016 Rise Set
Actual Time
Civil Twilight
Nautical Twilight
Astronomical Twilight
Moon
Length of Visible Light
Length of Day
Tomorrow will be .
, % of the Moon is Illuminated

Today's Extremes

State Highs State Lows

Community

WunderPhotos

Upload Photos

1,927,163 photos uploaded!

WunderBlog® & News

Nearby

Air Quality

  Air Quality AQ Index Pollutant
Not available.

Snow Depth

Station Depth Elevation

Earthquake Activity

City Distance Mag. Time & Date
Minimum magnitude displayed is 2.5.

Coastal Water Temperatures

Place Temperature

Stations

Nearby Weather Stations

Station Location Temp. Windchill Dew Point Humidity Wind Precip. Elev Updated Type
                   

Watches & Warnings

There are currently no watches in effect.